Allentown, Illinois
Current Conditions -  °F | °C
As of 9:54 AM on Thursday 23 Oct 2014 (Local Time) from KPIA Reporting Station
Clear Clear  
Wind Chill: 51°   Ceiling: Unl
Heat Index: 51°   Visibility: 10mi
Dew Point: 41°   Wind: 8mph
Humidity: 68%   Direction: 190°S
Pressure: 30.2"   Gusts: NA
Location:  40.4817°N, 89.4923°W
Report Text: KPIA 231454Z 19007KT 10SM CLR 11/05 A3020 RMK AO2 SLP229 T01060050 53000
Loading
Personal Weather Stations






























Interactive Weather Map
Tropical Storm Tracking
New forecast layout! Learn more

10-Day Weather Forecast

Advertisements
Track Severe Weather on mobile